Flugplatz Augsburg

Bericht für EDMA

vom 25.10. um 16:50 UTC

Wind 3 kt aus 90°

Sichtweite 10 km oder mehr

gute Sicht, keine Wolken < 5000 ft, keine CB, keine Wettererscheinungen (CAVOK)

Temperatur 7.0°C

Taupunkt 6.0°C

Luftfeuchtigkeit 93%

Luftdruck 1021 hPa

EDMA 251650Z 09003KT CAVOK 07/06 Q1021

Prognose für EDMA

vom 25.10. um 14:00 UTC

Zwischen 15:00 UTC und 20:00 UTC

variable Windrichtung mit 2 kt

Sichtweite 10 km oder mehr

keine signifikanten Wettererscheinungen

keine Wolken


Zwischen 20:00 und 22:00 UTC übergehend zu

variable Windrichtung mit 2 kt

Sichtweite 1200 m

Nebelschwaden

keine Wolken


Zwischen 22:00 und 00:00 UTC übergehend zu

variable Windrichtung mit 2 kt

Sichtweite 400 m

Nebel

TAF EDMA 251400Z 2515/2524 VRB02KT CAVOK BECMG 2520/2522 1200 BCFG BECMG 2522/2524 0400 FG VV001
Impressum